createdAt,value
2022-08-11T00:02:36.058Z,12.40
2022-08-11T00:05:08.205Z,12.40
2022-08-11T00:07:43.344Z,12.40
2022-08-11T00:10:13.548Z,12.40
2022-08-11T00:12:43.946Z,12.40
2022-08-11T00:15:14.144Z,12.30
2022-08-11T00:17:42.854Z,12.30
2022-08-11T00:20:16.715Z,12.30
2022-08-11T00:22:48.715Z,12.20
2022-08-11T00:25:20.437Z,12.10
2022-08-11T00:27:49.656Z,12.00
2022-08-11T00:30:19.493Z,11.90
2022-08-11T00:32:58.712Z,11.80
2022-08-11T00:35:50.907Z,11.70
2022-08-11T00:38:26.160Z,11.70
2022-08-11T00:41:00.575Z,11.60
2022-08-11T00:43:49.104Z,11.60
2022-08-11T00:46:30.459Z,11.60
2022-08-11T00:49:12.598Z,11.50
2022-08-11T00:52:05.702Z,11.50
2022-08-11T00:55:11.790Z,11.50
2022-08-11T00:58:01.669Z,11.40
2022-08-11T01:00:44.019Z,11.30
2022-08-11T01:03:21.809Z,11.30
2022-08-11T01:06:22.842Z,11.20
2022-08-11T01:09:25.953Z,11.20
2022-08-11T01:12:40.996Z,11.20
2022-08-11T01:15:40.974Z,11.10
2022-08-11T01:18:54.047Z,11.10
2022-08-11T01:21:51.909Z,11.00
2022-08-11T01:25:02.073Z,11.00
2022-08-11T01:28:21.247Z,11.10
2022-08-11T01:31:26.696Z,11.10
2022-08-11T01:34:23.071Z,11.10
2022-08-11T01:37:17.969Z,11.00
2022-08-11T01:40:17.365Z,11.00
2022-08-11T01:43:26.884Z,10.90
2022-08-11T01:46:00.721Z,11.00
2022-08-11T01:48:41.752Z,11.00
2022-08-11T01:51:25.901Z,11.00
2022-08-11T01:54:04.222Z,11.00
2022-08-11T01:56:59.165Z,11.00
2022-08-11T01:59:35.331Z,11.00
2022-08-11T02:02:43.008Z,11.10
2022-08-11T02:05:30.073Z,11.00
2022-08-11T02:08:04.661Z,11.00
2022-08-11T02:11:02.173Z,11.00
2022-08-11T02:13:42.696Z,11.00
2022-08-11T02:16:22.820Z,11.00
2022-08-11T02:19:13.645Z,10.90
2022-08-11T02:22:09.082Z,10.90
2022-08-11T02:24:47.104Z,10.90
2022-08-11T02:27:23.111Z,10.90
2022-08-11T02:30:07.322Z,10.80
2022-08-11T02:32:57.986Z,10.80
2022-08-11T02:35:32.848Z,10.80
2022-08-11T02:38:12.841Z,10.70
2022-08-11T02:40:50.382Z,10.60
2022-08-11T02:43:36.092Z,10.50
2022-08-11T02:46:20.110Z,10.50
2022-08-11T02:49:23.572Z,10.50
2022-08-11T02:52:04.278Z,10.40
2022-08-11T02:54:43.519Z,10.40
2022-08-11T02:57:19.792Z,10.40
2022-08-11T02:59:56.265Z,10.30
2022-08-11T03:02:56.565Z,10.30
2022-08-11T03:06:00.372Z,10.30
2022-08-11T03:08:51.358Z,10.20
2022-08-11T03:11:44.837Z,10.20
2022-08-11T03:14:35.401Z,10.20
2022-08-11T03:17:21.468Z,10.20
2022-08-11T03:20:07.124Z,10.30
2022-08-11T03:22:41.691Z,10.30
2022-08-11T03:25:16.398Z,10.30
2022-08-11T03:27:54.378Z,10.20
2022-08-11T03:30:29.138Z,10.20
2022-08-11T03:33:32.458Z,10.20
2022-08-11T03:36:11.245Z,10.20
2022-08-11T03:38:51.836Z,10.20
2022-08-11T03:42:04.154Z,10.20
2022-08-11T03:44:51.630Z,10.20
2022-08-11T03:47:55.027Z,10.20
2022-08-11T03:50:51.837Z,10.20
2022-08-11T03:53:36.680Z,10.20
2022-08-11T03:56:23.704Z,10.20
2022-08-11T03:59:32.101Z,10.20
2022-08-11T04:02:19.212Z,10.20
2022-08-11T04:05:26.421Z,10.20
2022-08-11T04:08:27.380Z,10.20
2022-08-11T04:11:35.588Z,10.20
2022-08-11T04:14:42.321Z,10.20
2022-08-11T04:17:44.513Z,10.30
2022-08-11T04:21:00.740Z,10.30
2022-08-11T04:24:34.406Z,10.30
2022-08-11T04:27:22.776Z,10.50
2022-08-11T04:30:05.571Z,10.50
2022-08-11T04:33:04.970Z,10.50
2022-08-11T04:35:48.579Z,10.50
2022-08-11T04:38:47.119Z,10.60
2022-08-11T04:42:02.849Z,10.70
2022-08-11T04:45:15.121Z,10.70
2022-08-11T04:48:22.547Z,10.90
2022-08-11T04:51:25.154Z,11.10
2022-08-11T04:54:19.765Z,11.40
2022-08-11T04:57:07.156Z,11.70
2022-08-11T05:00:23.417Z,12.00
2022-08-11T05:03:39.960Z,12.30
2022-08-11T05:06:53.744Z,13.10
2022-08-11T05:09:41.267Z,14.20
2022-08-11T05:12:29.904Z,15.30
2022-08-11T05:15:17.655Z,16.20
2022-08-11T05:18:14.436Z,16.90
2022-08-11T05:21:07.870Z,17.50
2022-08-11T05:23:58.395Z,18.10
2022-08-11T05:26:49.339Z,18.70
2022-08-11T05:30:04.381Z,19.10
2022-08-11T05:33:00.964Z,19.60
2022-08-11T05:36:02.532Z,19.90
2022-08-11T05:38:45.082Z,20.00
2022-08-11T05:41:31.703Z,19.90
2022-08-11T05:44:19.850Z,19.30
2022-08-11T05:47:08.819Z,18.80
2022-08-11T05:49:55.187Z,18.30
2022-08-11T05:52:46.777Z,18.10
2022-08-11T05:55:34.894Z,18.30
2022-08-11T05:58:05.060Z,19.50
2022-08-11T06:00:42.237Z,20.90
2022-08-11T06:03:12.198Z,22.30
2022-08-11T06:05:44.055Z,23.70
2022-08-11T06:08:14.497Z,25.10
2022-08-11T06:10:46.240Z,25.90
2022-08-11T06:13:18.226Z,26.60
2022-08-11T06:15:47.974Z,27.70
2022-08-11T06:18:17.161Z,28.30
2022-08-11T06:20:49.449Z,28.20
2022-08-11T06:23:20.571Z,29.10
2022-08-11T06:25:51.391Z,29.60
2022-08-11T06:28:22.616Z,30.10
2022-08-11T06:30:51.649Z,29.70
2022-08-11T06:33:31.317Z,29.90
2022-08-11T06:36:05.679Z,30.60
2022-08-11T06:38:48.443Z,30.90
2022-08-11T06:41:31.716Z,30.30
2022-08-11T06:44:17.701Z,30.50
2022-08-11T06:46:50.848Z,30.40
2022-08-11T06:49:37.732Z,30.30
2022-08-11T06:52:34.009Z,30.00
2022-08-11T06:55:05.670Z,29.50
2022-08-11T06:57:55.329Z,29.90
2022-08-11T07:00:30.426Z,30.00
2022-08-11T07:03:08.319Z,29.50
2022-08-11T07:05:48.308Z,29.10
2022-08-11T07:09:17.119Z,28.60
2022-08-11T07:12:26.040Z,28.80
2022-08-11T07:15:15.202Z,28.60
2022-08-11T07:17:49.900Z,28.80
2022-08-11T07:20:37.058Z,29.20
2022-08-11T07:23:27.787Z,29.30
2022-08-11T07:26:16.092Z,29.20
2022-08-11T07:28:58.064Z,29.10
2022-08-11T07:31:33.537Z,29.20
2022-08-11T07:34:16.061Z,29.40
2022-08-11T07:36:51.084Z,29.20
2022-08-11T07:39:22.577Z,29.00
2022-08-11T07:41:53.631Z,29.00
2022-08-11T07:44:22.520Z,28.90
2022-08-11T07:47:11.151Z,29.30
2022-08-11T07:49:57.953Z,29.30
2022-08-11T07:52:33.837Z,29.40
2022-08-11T07:55:05.267Z,29.60
2022-08-11T07:58:14.211Z,29.60
2022-08-11T08:01:01.643Z,29.60
2022-08-11T08:03:54.640Z,29.60
2022-08-11T08:06:41.629Z,29.90
2022-08-11T08:09:28.311Z,29.60
2022-08-11T08:12:15.122Z,29.20
2022-08-11T08:15:01.598Z,29.20
2022-08-11T08:18:08.949Z,28.70
2022-08-11T08:20:40.092Z,28.70
2022-08-11T08:23:09.496Z,28.80
2022-08-11T08:25:41.324Z,28.50
2022-08-11T08:28:14.215Z,28.60
2022-08-11T08:30:49.528Z,28.90
2022-08-11T08:33:22.204Z,29.00
2022-08-11T08:36:11.388Z,28.90
2022-08-11T08:38:42.372Z,29.30
2022-08-11T08:41:13.261Z,29.50
2022-08-11T08:43:49.005Z,29.10
2022-08-11T08:46:21.977Z,29.20
2022-08-11T08:48:53.186Z,29.70
2022-08-11T08:52:01.069Z,30.10
2022-08-11T08:54:30.753Z,30.70
2022-08-11T08:57:03.068Z,30.40
2022-08-11T08:59:47.731Z,30.00
2022-08-11T09:02:33.669Z,29.70
2022-08-11T09:05:05.340Z,29.70
2022-08-11T09:07:39.350Z,29.60
2022-08-11T09:10:10.814Z,29.80
2022-08-11T09:12:42.296Z,30.10
2022-08-11T09:15:12.602Z,29.90
2022-08-11T09:17:42.805Z,29.90
2022-08-11T09:20:14.820Z,30.00
2022-08-11T09:23:54.661Z,30.10
2022-08-11T09:26:14.528Z,30.10
2022-08-11T09:28:45.015Z,30.20
2022-08-11T09:31:14.309Z,30.60
2022-08-11T09:33:44.214Z,30.80
2022-08-11T09:36:32.601Z,31.20
2022-08-11T09:39:23.723Z,31.50
2022-08-11T09:42:01.844Z,31.80
2022-08-11T09:44:51.027Z,30.80
2022-08-11T09:47:24.478Z,30.50
2022-08-11T09:49:56.261Z,30.60
2022-08-11T09:52:25.823Z,30.10
2022-08-11T09:54:56.529Z,30.40
2022-08-11T09:57:43.790Z,30.40
2022-08-11T10:00:15.282Z,30.50
2022-08-11T10:02:45.944Z,30.40
2022-08-11T10:05:36.182Z,30.40
2022-08-11T10:08:06.424Z,30.30
2022-08-11T10:10:38.693Z,30.60
2022-08-11T10:14:29.332Z,30.40
2022-08-11T10:16:15.071Z,30.20
2022-08-11T10:18:53.334Z,30.40
2022-08-11T10:21:36.943Z,30.30
2022-08-11T10:24:25.141Z,30.50
2022-08-11T10:26:58.427Z,31.00
2022-08-11T10:29:49.809Z,30.90
2022-08-11T10:32:52.162Z,30.90
2022-08-11T10:35:27.943Z,29.90
2022-08-11T10:38:06.071Z,28.80
2022-08-11T10:40:40.104Z,28.70
2022-08-11T10:43:14.214Z,28.60
2022-08-11T10:46:03.507Z,28.70
2022-08-11T10:48:36.198Z,28.90
2022-08-11T10:51:13.535Z,29.30
2022-08-11T10:54:01.958Z,28.80
2022-08-11T10:56:49.226Z,29.30
2022-08-11T10:59:19.408Z,30.30
2022-08-11T11:01:48.050Z,30.10
2022-08-11T11:04:18.324Z,29.60
2022-08-11T11:06:54.851Z,29.50
2022-08-11T11:09:29.967Z,29.50
2022-08-11T11:12:18.407Z,29.60
2022-08-11T11:15:07.066Z,29.20
2022-08-11T11:18:01.812Z,29.10
2022-08-11T11:20:40.023Z,29.00
2022-08-11T11:23:17.837Z,29.40
2022-08-11T11:26:27.686Z,29.40
2022-08-11T11:29:28.628Z,29.30
2022-08-11T11:32:19.434Z,29.40
2022-08-11T11:35:11.517Z,29.70
2022-08-11T11:37:41.840Z,30.20
2022-08-11T11:40:32.032Z,30.70
2022-08-11T11:43:01.526Z,30.70
2022-08-11T11:45:30.281Z,30.00
2022-08-11T11:48:02.132Z,29.90
2022-08-11T11:50:33.122Z,30.10
2022-08-11T11:53:03.053Z,30.10
2022-08-11T11:55:31.998Z,30.00
2022-08-11T11:58:20.120Z,29.90
2022-08-11T12:01:09.608Z,30.00
2022-08-11T12:03:40.747Z,30.20
2022-08-11T12:06:11.040Z,30.00
2022-08-11T12:08:39.629Z,30.00
2022-08-11T12:11:25.146Z,30.10
2022-08-11T12:13:54.847Z,30.70
2022-08-11T12:16:34.592Z,30.10
2022-08-11T12:19:10.396Z,29.60
2022-08-11T12:22:00.878Z,29.90
2022-08-11T12:24:47.723Z,29.80
2022-08-11T12:27:24.184Z,29.60
2022-08-11T12:29:59.781Z,28.50
2022-08-11T12:32:31.974Z,27.60
2022-08-11T12:35:02.287Z,27.60
2022-08-11T12:37:33.613Z,28.10
2022-08-11T12:40:49.706Z,28.10
2022-08-11T12:43:37.248Z,28.30
2022-08-11T12:46:09.666Z,29.50
2022-08-11T12:49:02.497Z,30.70
2022-08-11T12:52:11.768Z,30.30
2022-08-11T12:54:59.830Z,29.50
2022-08-11T12:57:50.614Z,29.10
2022-08-11T13:00:37.835Z,29.00
2022-08-11T13:03:25.541Z,29.70
2022-08-11T13:05:56.554Z,30.00
2022-08-11T13:08:29.339Z,29.50
2022-08-11T13:11:19.117Z,29.10
2022-08-11T13:13:55.501Z,29.30
2022-08-11T13:16:27.762Z,29.40
2022-08-11T13:18:56.873Z,29.20
2022-08-11T13:21:25.747Z,29.40
2022-08-11T13:24:01.473Z,29.90
2022-08-11T13:26:43.468Z,30.50
2022-08-11T13:29:16.855Z,30.80
2022-08-11T13:31:45.999Z,30.50
2022-08-11T13:34:15.977Z,30.20
2022-08-11T13:36:45.112Z,29.40
2022-08-11T13:39:15.277Z,28.90
2022-08-11T13:41:47.843Z,28.80
2022-08-11T13:44:24.749Z,28.40
2022-08-11T13:46:55.348Z,28.40
2022-08-11T13:49:23.751Z,29.20
2022-08-11T13:51:53.697Z,29.70
2022-08-11T13:54:25.847Z,30.00
2022-08-11T13:56:56.945Z,29.80
2022-08-11T13:59:29.989Z,30.00
2022-08-11T14:02:22.186Z,30.20
2022-08-11T14:04:57.368Z,29.90
2022-08-11T14:07:28.826Z,29.50
2022-08-11T14:10:00.848Z,29.20
2022-08-11T14:12:49.382Z,29.30
2022-08-11T14:15:22.683Z,29.20
2022-08-11T14:17:56.071Z,29.60
2022-08-11T14:20:39.359Z,30.30
2022-08-11T14:23:11.523Z,30.90
2022-08-11T14:26:03.812Z,31.10
2022-08-11T14:28:41.504Z,29.90
2022-08-11T14:31:13.075Z,28.60
2022-08-11T14:34:00.973Z,28.60
2022-08-11T14:36:33.175Z,28.50
2022-08-11T14:39:04.583Z,28.50
2022-08-11T14:42:11.893Z,28.90
2022-08-11T14:45:00.356Z,29.20
2022-08-11T14:47:29.277Z,29.50
2022-08-11T14:50:11.866Z,30.40
2022-08-11T14:52:45.859Z,30.80
2022-08-11T14:55:32.790Z,30.50
2022-08-11T14:58:03.451Z,30.30
2022-08-11T15:00:33.293Z,30.00
2022-08-11T15:03:10.494Z,30.00
2022-08-11T15:05:52.385Z,30.00
2022-08-11T15:08:42.386Z,30.40
2022-08-11T15:11:32.387Z,31.10
2022-08-11T15:14:04.315Z,30.90
2022-08-11T15:16:50.448Z,30.40
2022-08-11T15:19:21.377Z,30.40
2022-08-11T15:22:07.950Z,30.10
2022-08-11T15:24:37.088Z,29.40
2022-08-11T15:27:27.893Z,29.50
2022-08-11T15:30:33.401Z,30.00
2022-08-11T15:33:24.644Z,29.80
2022-08-11T15:36:11.657Z,30.10
2022-08-11T15:38:45.454Z,30.10
2022-08-11T15:41:35.926Z,30.40
2022-08-11T15:44:59.045Z,30.00
2022-08-11T15:47:22.838Z,29.60
2022-08-11T15:50:11.637Z,29.50
2022-08-11T15:52:49.144Z,29.40
2022-08-11T15:55:20.068Z,30.00
2022-08-11T15:58:08.872Z,30.10
2022-08-11T16:01:03.743Z,30.00
2022-08-11T16:04:07.208Z,29.90
2022-08-11T16:06:40.422Z,29.40
2022-08-11T16:09:18.322Z,29.30
2022-08-11T16:11:47.996Z,29.70
2022-08-11T16:14:36.056Z,29.90
2022-08-11T16:17:05.749Z,29.50
2022-08-11T16:19:37.544Z,29.30
2022-08-11T16:22:10.084Z,28.90
2022-08-11T16:27:05.881Z,28.80
2022-08-11T16:27:34.273Z,28.70
2022-08-11T16:30:03.988Z,29.00
2022-08-11T16:32:33.266Z,29.10
2022-08-11T16:35:23.871Z,29.40
2022-08-11T16:38:12.150Z,29.50
2022-08-11T16:40:41.447Z,29.70
2022-08-11T16:43:30.393Z,29.30
2022-08-11T16:46:32.302Z,29.10
2022-08-11T16:49:03.009Z,29.40
2022-08-11T16:51:33.160Z,29.70
2022-08-11T16:54:05.097Z,29.40
2022-08-11T16:56:37.279Z,29.00
2022-08-11T16:59:16.953Z,28.70
2022-08-11T17:01:48.883Z,28.10
2022-08-11T17:04:48.756Z,27.30
2022-08-11T17:07:42.474Z,26.60
2022-08-11T17:10:53.459Z,26.30
2022-08-11T17:13:32.773Z,26.30
2022-08-11T17:16:12.098Z,26.00
2022-08-11T17:18:55.849Z,25.70
2022-08-11T17:21:27.358Z,25.40
2022-08-11T17:24:02.788Z,25.10
2022-08-11T17:26:58.249Z,24.80
2022-08-11T17:29:30.192Z,24.50
2022-08-11T17:32:18.032Z,24.40
2022-08-11T17:35:06.349Z,24.30
2022-08-11T17:37:36.491Z,24.20
2022-08-11T17:40:08.730Z,24.00
2022-08-11T17:42:56.483Z,23.90
2022-08-11T17:45:54.365Z,23.80
2022-08-11T17:48:28.643Z,23.60
2022-08-11T17:51:00.400Z,23.50
2022-08-11T17:54:15.944Z,23.30
2022-08-11T17:56:57.905Z,23.20
2022-08-11T17:59:49.243Z,23.10
2022-08-11T18:02:38.346Z,22.90
2022-08-11T18:05:12.847Z,22.70
2022-08-11T18:08:00.150Z,22.60
2022-08-11T18:10:49.008Z,22.40
2022-08-11T18:13:37.930Z,22.20
2022-08-11T18:16:24.547Z,22.00
2022-08-11T18:19:10.268Z,21.80
2022-08-11T18:22:08.203Z,21.60
2022-08-11T18:25:05.615Z,21.40
2022-08-11T18:27:54.451Z,21.10
2022-08-11T18:30:42.815Z,21.00
2022-08-11T18:34:05.865Z,20.90
2022-08-11T18:36:41.601Z,20.80
2022-08-11T18:39:30.485Z,20.60
2022-08-11T18:42:28.929Z,20.60
2022-08-11T18:45:17.258Z,20.50
2022-08-11T18:48:08.033Z,20.30
2022-08-11T18:51:30.799Z,20.10
2022-08-11T18:54:08.188Z,19.90
2022-08-11T18:56:54.484Z,19.60
2022-08-11T18:59:45.352Z,19.50
2022-08-11T19:02:33.824Z,19.30
2022-08-11T19:06:05.976Z,19.10
2022-08-11T19:08:48.418Z,18.90
2022-08-11T19:11:34.908Z,18.70
2022-08-11T19:14:30.316Z,18.50
2022-08-11T19:17:45.126Z,18.40
2022-08-11T19:20:28.584Z,18.20
2022-08-11T19:23:16.492Z,18.10
2022-08-11T19:26:03.151Z,17.90
2022-08-11T19:28:50.615Z,17.80
2022-08-11T19:31:42.294Z,17.70
2022-08-11T19:34:32.290Z,17.60
2022-08-11T19:37:22.149Z,17.50
2022-08-11T19:40:12.894Z,17.30
2022-08-11T19:43:00.542Z,17.20
2022-08-11T19:45:50.509Z,17.10
2022-08-11T19:48:40.126Z,17.00
2022-08-11T19:51:28.425Z,16.90
2022-08-11T19:54:15.188Z,16.80
2022-08-11T19:57:04.913Z,16.70
2022-08-11T19:59:51.769Z,16.50
2022-08-11T20:02:38.360Z,16.50
2022-08-11T20:05:25.368Z,16.40
2022-08-11T20:08:13.576Z,16.30
2022-08-11T20:11:00.349Z,16.20
2022-08-11T20:13:49.967Z,16.10
2022-08-11T20:16:38.912Z,16.00
2022-08-11T20:19:55.711Z,15.90
2022-08-11T20:22:34.210Z,15.80
2022-08-11T20:25:20.549Z,15.70
2022-08-11T20:28:08.645Z,15.60
2022-08-11T20:30:56.643Z,15.50
2022-08-11T20:33:43.363Z,15.40
2022-08-11T20:36:30.361Z,15.30
2022-08-11T20:39:17.570Z,15.30
2022-08-11T20:42:04.863Z,15.20
2022-08-11T20:44:52.024Z,15.10
2022-08-11T20:47:56.243Z,15.00
2022-08-11T20:50:45.968Z,14.90
2022-08-11T20:53:35.833Z,14.80
2022-08-11T20:56:28.848Z,14.70
2022-08-11T20:59:18.717Z,14.60
2022-08-11T21:02:10.126Z,14.60
2022-08-11T21:04:57.807Z,14.50
2022-08-11T21:07:56.880Z,14.50
2022-08-11T21:10:47.672Z,14.40
2022-08-11T21:13:39.031Z,14.30
2022-08-11T21:16:27.305Z,14.30
2022-08-11T21:20:01.117Z,14.20
2022-08-11T21:22:30.690Z,14.20
2022-08-11T21:25:19.204Z,14.00
2022-08-11T21:28:08.465Z,13.90
2022-08-11T21:30:57.632Z,13.90
2022-08-11T21:33:45.842Z,13.80
2022-08-11T21:36:33.241Z,13.70
2022-08-11T21:39:24.895Z,13.60
2022-08-11T21:42:12.253Z,13.50
2022-08-11T21:45:00.020Z,13.50
2022-08-11T21:47:47.672Z,13.40
2022-08-11T21:50:33.525Z,13.40
2022-08-11T21:53:19.688Z,13.40
2022-08-11T21:56:08.462Z,13.40
2022-08-11T21:58:55.353Z,13.30
2022-08-11T22:01:41.874Z,13.20
2022-08-11T22:04:27.900Z,13.10
2022-08-11T22:07:14.731Z,13.10
2022-08-11T22:10:00.547Z,13.10
2022-08-11T22:13:07.764Z,13.00
2022-08-11T22:15:53.834Z,13.00
2022-08-11T22:18:40.282Z,12.90
2022-08-11T22:22:01.082Z,12.90
2022-08-11T22:24:32.917Z,12.80
2022-08-11T22:27:18.533Z,12.70
2022-08-11T22:30:05.285Z,12.70
2022-08-11T22:32:51.520Z,12.60
2022-08-11T22:35:37.476Z,12.60
2022-08-11T22:38:23.892Z,12.60
2022-08-11T22:41:10.554Z,12.60
2022-08-11T22:43:56.124Z,12.50
2022-08-11T22:46:43.644Z,12.50
2022-08-11T22:49:56.169Z,12.40
2022-08-11T22:52:39.075Z,12.40
2022-08-11T22:55:26.568Z,12.30
2022-08-11T22:58:13.348Z,12.30
2022-08-11T23:00:59.638Z,12.30
2022-08-11T23:03:47.855Z,12.30
2022-08-11T23:06:34.682Z,12.30
2022-08-11T23:09:20.943Z,12.20
2022-08-11T23:12:10.292Z,12.20
2022-08-11T23:14:57.264Z,12.10
2022-08-11T23:17:43.752Z,12.00
2022-08-11T23:20:35.723Z,11.90
2022-08-11T23:23:31.248Z,11.80
2022-08-11T23:26:17.201Z,11.80
2022-08-11T23:29:05.224Z,11.80
2022-08-11T23:31:53.489Z,11.70
2022-08-11T23:35:04.530Z,11.70
2022-08-11T23:37:49.649Z,11.70
2022-08-11T23:40:35.120Z,11.60
2022-08-11T23:43:21.750Z,11.60
2022-08-11T23:46:07.484Z,11.60
2022-08-11T23:48:54.967Z,11.60
2022-08-11T23:51:41.642Z,11.60
2022-08-11T23:54:32.659Z,11.60
2022-08-11T23:57:22.812Z,11.50
